Scroll down
FLIGHT INFORMATION
American Airlines

AAL121

At Arrival Gate

KSJC
 KPHX
DATE: 2020-08-29
GATE:  -
GATE DEPARTURE: 19:47
TAKEOFF: 19:55
DATE: 2020-08-29
GATE:  -
LANDING: 21:24
GATE ARRIVAL: 21:31
FLIGHT DATA
Crew: 
Speed: 
476 kts
Altitude: 
35,066 ft
Stage Length: 
539.2 nm
Block Time: 
1.7 hrs
Flight Time: 
1.5 hrs
Fuel Used: 
10,134 lb
Cleared Route: 
TRACK DATA
50,000 ft 1,000 kts
AIRCRAFT INFO AND CUMULATIVE STATS
Aircraft Type: 
B738BW
Registration: 
SELCAL: 
CPBE
MSN/LN: 
31176 / 4580
Operator: 
Total Flights: 
24
Total Block Time: 
53.9 hrs
Total Flight Time: 
47.1 hrs
Total Fuel Time: 
297,418 lb
DATALINK LOG | Newest first | Current as of: 2020-12-03 07:14:05
LABEL SEQUENCE CONTENT Dn/Up
QD330621:31 8.6▼ Dn
QC245921:24▼ Dn
2U0622KPHX 292051Z 32009G16KT 10SM FEW080 SCT120 SCT160 BKN210 38/18 A2982 RMK AO2 SLP075 CB DSNT N T03830178 58016▲ Up
2S0744KPHX▼ Dn
2U0115KPHX 291951Z 31010KT 10SM FEW080 SCT130 SCT160 BKN210 38/17 A2985 RMK AO2 LTG DSNT N SLP084 CB DSNT N AND NW T03830167▲ Up
2S0239KPHX▼ Dn
2U3854KPHX 291951Z 31010KT 10SM FEW080 SCT130 SCT160 BKN210 38/17 A2985 RMK AO2 LTG DSNT N SLP084 CB DSNT N AND NW T03830167▲ Up
5Z391929 AUG 20 20:38:12z / FLT DECK GOOD / ACF POS GOOD / GRND SERVICES GOOD / MAINT GOOD▼ Dn
GA3918ADVANCED GATE ASSIGNMENTS NOT YET AVAILABLE AT THIS AIRPORT▲ Up
GR3918KPHX 21:21 MAAS 00 YP/UM 00/00 WCHR/S/C 04/06/05 HI-VAL NO DIPL/VIP YES▼ Dn
2S3918KPHX▼ Dn
QB554219:55▼ Dn
QA473519:47 18.7▼ Dn
A33231CLEARED TO KPHX VIA TECKY3 LOSHN BOILE BLH HYDRR1 . SQUAWK .▲ Up
5U3217KPHX 292326Z 27009KT 10SM FEW080 FEW150 BKN200 37/18 A2986▲ Up
2U3213KSJC 291853Z 00000KT 10SM FEW001 SCT030 BKN045 23/11 A2987 RMK AO2 SLP113 FU FEW001 FU SCT030 FU BKN045 T02280111 $▲ Up
5S3228KPHX▼ Dn
2S3228KSJC▼ Dn
Q03120[LINK ACK]▲ Up
Q03120[LINK TEST]▼ Dn


AIRCRAFT HISTORY
FLIGHT DATE FLIGHT NO. ORIGIN DESTINATION CLEARED ROUTE BLOCK TIME FLIGHT TIME FUEL USED PILOT
2020-11-28AAL329KAUS KDFW KAUS WLMRT ELOEL FORSS GUTZZ WERMO EGADS KIILO KYSSS BOOVE ISABL SOCKK DALLN RW35L0.9 hrs0.6 hrs4,575 lbMichael Collier
2020-11-22AAL936KDFW KAUS KDFW WINDU KAUS1.2 hrs0.8 hrs6,228 lbCharles Harris
2020-11-02AAL706KDEN KDFW KDEN STAKR AZARO SLEEK BGD VKTRY ZMMAN PHAUP BOSSI RW17C1.9 hrs1.4 hrs9,245 lbMichael Collier
2020-10-24AAL0519KORD KDEN KORD OLINN OREOS OBENE OGALE OBH BRWRY DUNKL KOLSH PLZNR LAWGR PPINT TAPME GRRUB KIKME RW16L2.7 hrs2.3 hrs15,091 lbSteven Perry
2020-10-19AAL2775KLAS KORD KLAS RBELL ROPPR CEASR HITME COWBY MOSBI GUP CIM GCK SLN AGENT KIDER IRK LOAMY KEOKK DRAMS RYELY BDF BYLAW BENKY NEWRK AHSTN PETAH JORJO MONKZ TONIE HAZIL RW28C3.2 hrs2.9 hrs16,839 lbTom Landry
2020-09-23AAL445KPHX KLAS KPHX RRSTA IGM KLAS1 hrs0.8 hrs5,056 lbAlex K.
2020-09-12AAL2829KJFK KPHX 4.9 hrs4.6 hrs29,176 lbGeorge M
2020-09-12AAL2302KORD KJFK KORD DUFEE ELX HAAKK DOXXY DXO JHW HOXIE DMACK STENT MAGIO LVZ JENNO HARTY STW LENDY LGA AROKE RW04L2.2 hrs1.8 hrs11,791 lbGeorge M
2020-09-05AAL4505KMSP KORD KMSP FGT FOBUG DOKTR CORDY RST ZZIPR WELCM TEEOO MITEE BHAWK STNLE CUUPP CHMPN CLSBY FYTTE MOTRR COGSS MADII SOOLU KURKK VULCN HIMGO EBENS RW27L1.2 hrs0.9 hrs6,833 lbGeorge M
2020-08-31AAL4511KORD KMSP KORD PMPKN NEATO DLLAN RONIC KAMMA BEERI ROBBY KBULL ZZING HENDR CMAAC KKILR HUGGI KRISP STUWE GEEQU AABEZ RW30L1.4 hrs1 hrs7,308 lbGeorge M
2020-08-30AAL583KCLT KORD 1.9 hrs1.5 hrs10,385 lbGeorge M
2020-08-30AAL1748KTPA KCLT 1.5 hrs1.3 hrs8,375 lbGeorge M
2020-08-30AAL2921KORD KTPA KORD DENNT DARCY DREGS DONVE BWG BNA LGC GOONS BULZI HEVVN LEGGT TABIR DIPAY GUSNE FADDI RW19R2.3 hrs2.1 hrs12,087 lbGeorge M
2020-08-29AAL883KPHX KORD 3.2 hrs2.8 hrs17,672 lbGeorge M
2020-08-29AAL121KSJC KPHX 1.7 hrs1.5 hrs10,134 lbGeorge M
2020-08-29AAL1412KORD KSJC KORD MYKIE MONNY JORDY HANKU MAASI WYYTE KUTCH CHUWY CYS MTU DTA KNGRY GYLET STUBL RAZRR OUCHH NIKKT SEKKO SCOPR KLIDE TUZGY RW30R4.4 hrs4.1 hrs24,578 lbGeorge M
2020-08-16AAL2219KSAN KORD 3.8 hrs3.5 hrs21,580 lbGeorge M
2020-08-16AAL2671KPHX KSAN 1 hrs0.7 hrs5,468 lbGeorge M
2020-08-16AAL1404KDEN KPHX KDEN BRKEM LENNN TIKLR CIROS RKYMT SOLAR SMMUR DAAYE GUP KIRKM SLIDR TINIZ PAYSO EAGUL HOMRR VNNOM ESDEE BASSL DERVL JAGAL RW261.8 hrs1.4 hrs9,612 lbGeorge M
2020-06-27AAL5845KBUR KDEN KBUR RAYVE SLAPP YAAPY JETHK BBITE ANTLP NNAVY BLAZN LAS BEALE NOOTN BETHL FREDD DICEE BUMMP SNOEE BOWLL ABASN KTOOO SSKII BGDEE CRAGG NARLE TELLR RW35L2.3 hrs1.9 hrs12,966 lbPete L.
2020-06-26AAL3920KGPI KBUR KGPI DAACE PYGMY KILLY ZAMON EYCHO MLP REO LLC FRA REBRG MMTLY CRUUE EEAZY HIHWY MAIDD PEPRZ HEVVY ROKKR ZEPPE IVINS MIKEI RW082.5 hrs2.1 hrs11,442 lbPete L.
2020-06-25AAL5827KPHX KGPI 2.6 hrs2.2 hrs13,204 lbPete L.
2020-06-25AAL3851KJAC KPHX KJAC KICNE MLD BETHL CORKR TENTS PANTD DUTEY MAIER BRUSR BDWIL ENSEA FBALL PGSKN TLMAN JAMIL JAMIL RW081.9 hrs1.7 hrs9,239 lbPete L.
2020-06-24AAL5826KMSY KJAC KMSY LSU EIC DECOD ATOKA IRW MMB LBL LAA FQF CKW DNW RW193.5 hrs3.1 hrs18,532 lbPete L.